Location Isle ofWight, ISLE OF WIGHT, UK

ob UISISLE1 181015Z AUTO 26007G10KT CLR 18/14 A2989 RMK SLPNO 

2017.08.18 1015 UTC
Wind from the WSW (259 degrees) at 8.1 MPH (7 KT) gusting to 11.3 MPH (10 KT)
Visibility    Mile(s)
Sky Conditions  clear
Temperature 65.2 F (18 C)
Dew Point 56.3 F (14 C)
Relative Humidity 73%
Pressure   29.896 in. Hg (1012 hPa)
Rain  0.00 in.
Daily Rain 0.008 in.

Station Name  Isle of Wight Weather
Longitude, Latitude  -1.271, 50.72
Elevation 45
Station URL http://www.isleofwightweather.co.uk
Software Type WeatherDisplay:10.37R